Time;durP1;ratioP1;P1;durP2;ratioP2;P2;SDS_P1;SDS_P2;PMS_P1;PMS_P2;Temp;Humidity;BMP_temperature;BMP_pressure;BME280_temperature;BME280_humidity;BME280_pressure;Samples;Min_cycle;Max_cycle;Signal;HPM_P1;HPM_P2
2022/12/09 00:02:14;;;;;;;;;40.00;31.25;;;;;7.91;61.63;100210.97;5027420;28;45180;-61
2022/12/09 00:04:39;;;;;;;;;42.25;30.25;;;;;7.90;61.61;100203.84;5030695;28;45146;-62
2022/12/09 00:07:05;;;;;;;;;37.25;31.25;;;;;7.93;61.81;100210.16;5032010;28;45732;-63
2022/12/09 00:09:30;;;;;;;;;38.00;27.75;;;;;7.75;61.67;100170.66;5028848;28;45045;-62
2022/12/09 00:11:55;;;;;;;;;32.25;26.50;;;;;7.88;61.54;100190.50;5032665;28;45048;-62
2022/12/09 00:14:21;;;;;;;;;42.00;31.25;;;;;7.93;60.77;100199.50;5032367;28;44972;-62
2022/12/09 00:16:46;;;;;;;;;28.25;25.25;;;;;7.82;61.21;100168.16;5029035;28;45362;-63
2022/12/09 00:19:12;;;;;;;;;43.25;30.50;;;;;7.96;60.96;100197.81;5031743;28;45062;-61
2022/12/09 00:21:37;;;;;;;;;47.50;34.75;;;;;7.90;61.26;100194.13;5021526;28;45057;-62
2022/12/09 00:24:06;;;;;;;;;40.25;35.00;;;;;7.90;60.99;100191.47;5027140;28;46032;-63
2022/12/09 00:26:32;;;;;;;;;37.25;29.25;;;;;7.88;61.22;100184.28;5026507;28;46567;-62
2022/12/09 00:28:59;;;;;;;;;39.75;33.00;;;;;7.73;61.41;100177.69;5027657;28;44986;-61
2022/12/09 00:31:28;;;;;;;;;39.75;29.00;;;;;7.85;61.12;100190.44;5029928;28;45092;-62
2022/12/09 00:33:59;;;;;;;;;47.50;36.75;;;;;7.87;61.56;100187.78;5027050;28;45270;-62
2022/12/09 00:36:25;;;;;;;;;43.25;34.50;;;;;7.80;61.65;100178.75;5034347;28;45546;-63
2022/12/09 00:38:53;;;;;;;;;51.50;36.00;;;;;7.80;61.36;100184.06;5033324;28;45296;-64
2022/12/09 00:41:18;;;;;;;;;42.00;31.50;;;;;7.86;61.02;100186.91;5029678;28;45399;-62
2022/12/09 00:43:44;;;;;;;;;49.50;35.75;;;;;7.81;61.51;100169.03;5031040;28;45021;-64
2022/12/09 00:46:11;;;;;;;;;46.75;36.25;;;;;7.79;60.95;100169.00;5029345;28;45622;-64
2022/12/09 00:48:37;;;;;;;;;32.75;31.50;;;;;7.71;61.05;100157.22;5024837;28;45443;-64
2022/12/09 00:51:04;;;;;;;;;39.00;33.25;;;;;7.87;61.90;100177.16;5025636;28;45048;-63
2022/12/09 00:53:29;;;;;;;;;44.75;34.50;;;;;7.90;61.21;100171.94;5032245;28;45088;-62
2022/12/09 00:55:55;;;;;;;;;50.25;33.25;;;;;7.85;61.79;100173.56;5025760;28;45715;-62
2022/12/09 00:58:20;;;;;;;;;42.75;31.00;;;;;7.82;61.80;100170.81;5029843;28;45114;-64
2022/12/09 01:00:46;;;;;;;;;41.25;32.25;;;;;7.66;61.24;100143.81;5033656;28;45095;-62
2022/12/09 01:03:16;;;;;;;;;46.50;35.50;;;;;7.72;61.77;100159.94;5029763;28;45163;-63
2022/12/09 01:05:41;;;;;;;;;50.75;37.25;;;;;7.65;62.63;100155.28;5032109;28;45754;-63
2022/12/09 01:08:07;;;;;;;;;47.25;37.25;;;;;7.73;61.75;100163.50;5031596;28;45299;-64
2022/12/09 01:10:33;;;;;;;;;42.00;35.00;;;;;7.61;62.50;100137.47;5030173;28;45098;-62
2022/12/09 01:12:58;;;;;;;;;43.50;36.75;;;;;7.70;61.85;100153.66;5024662;28;45053;-64
2022/12/09 01:15:24;;;;;;;;;47.25;35.75;;;;;7.59;62.04;100143.56;5025448;28;56268;-65
2022/12/09 01:17:49;;;;;;;;;38.00;34.25;;;;;7.69;62.32;100164.28;5030274;28;45011;-62
2022/12/09 01:20:15;;;;;;;;;54.75;36.50;;;;;7.55;61.67;100146.16;5019230;28;45239;-64
2022/12/09 01:22:40;;;;;;;;;44.75;35.00;;;;;7.63;61.51;100150.81;5026568;28;45041;-64
2022/12/09 01:25:06;;;;;;;;;53.25;37.00;;;;;7.55;61.83;100142.59;5022498;28;45829;-62
2022/12/09 01:27:31;;;;;;;;;40.25;35.75;;;;;7.63;62.26;100158.78;5025540;28;45144;-64
2022/12/09 01:29:57;;;;;;;;;43.00;33.50;;;;;7.54;62.24;100154.09;5025250;28;45066;-63
2022/12/09 01:32:22;;;;;;;;;42.00;31.75;;;;;7.47;61.67;100146.78;5039219;28;45170;-64
2022/12/09 01:34:47;;;;;;;;;35.25;34.75;;;;;7.53;62.19;100152.28;5025575;28;45716;-64
2022/12/09 01:37:13;;;;;;;;;39.00;32.75;;;;;7.54;62.07;100162.97;5029411;28;45036;-64
2022/12/09 01:39:40;;;;;;;;;26.25;18.25;;;;;7.48;62.16;100152.16;5030410;28;45478;-63
2022/12/09 01:42:06;;;;;;;;;38.75;31.00;;;;;7.54;61.79;100157.66;5030444;28;45406;-63
2022/12/09 01:44:32;;;;;;;;;50.25;32.50;;;;;7.52;62.21;100154.06;5030736;28;45158;-63
2022/12/09 01:47:00;;;;;;;;;41.25;35.25;;;;;7.54;61.41;100168.28;5023629;28;45085;-64
2022/12/09 01:49:41;;;;;;;;;42.50;30.25;;;;;7.52;61.87;100169.09;5027960;28;45121;-64
2022/12/09 01:52:20;;;;;;;;;36.00;33.50;;;;;7.38;62.09;100152.75;5023213;28;45123;-62
2022/12/09 01:54:46;;;;;;;;;44.75;30.75;;;;;7.46;61.87;100160.94;5023803;28;45581;-64
2022/12/09 01:57:12;;;;;;;;;41.75;35.00;;;;;7.37;61.84;100143.88;5024137;28;45390;-61
2022/12/09 01:59:38;;;;;;;;;33.75;31.25;;;;;7.48;62.07;100167.22;5028080;28;44876;-62
2022/12/09 02:02:06;;;;;;;;;38.00;29.50;;;;;7.45;61.82;100169.78;5029652;28;45013;-62
2022/12/09 02:04:38;;;;;;;;;50.25;36.25;;;;;7.41;61.81;100163.47;5029762;28;46734;-63
2022/12/09 02:07:08;;;;;;;;;45.00;30.00;;;;;7.38;61.92;100163.38;5030445;28;45081;-63
2022/12/09 02:09:34;;;;;;;;;47.75;36.25;;;;;7.36;61.94;100168.63;5044107;28;45171;-63
2022/12/09 02:12:05;;;;;;;;;48.00;36.00;;;;;7.34;62.20;100159.72;5028692;28;45102;-63
2022/12/09 02:14:38;;;;;;;;;43.75;35.00;;;;;7.29;62.35;100156.03;5031415;28;45401;-62
2022/12/09 02:17:13;;;;;;;;;35.25;33.25;;;;;7.37;62.51;100165.13;5026715;28;45258;-63
2022/12/09 02:20:05;;;;;;;;;52.00;34.75;;;;;7.31;62.24;100141.03;5031564;28;44991;-66
2022/12/09 02:22:46;;;;;;;;;35.00;31.75;;;;;7.39;62.09;100151.88;5028386;28;45203;-63
2022/12/09 02:25:18;;;;;;;;;45.25;28.50;;;;;7.34;62.20;100150.84;5021364;28;46110;-61
2022/12/09 02:27:52;;;;;;;;;49.50;35.75;;;;;7.22;62.28;100131.88;5023146;28;45083;-64
2022/12/09 02:30:24;;;;;;;;;39.75;30.75;;;;;7.14;62.64;100126.34;5022184;28;45081;-63
2022/12/09 02:33:11;;;;;;;;;41.00;34.50;;;;;7.28;62.98;100142.69;5029672;28;45127;-61
2022/12/09 02:35:43;;;;;;;;;47.25;29.75;;;;;7.29;62.13;100149.81;5028601;28;45344;-63
2022/12/09 02:38:14;;;;;;;;;41.25;30.25;;;;;7.24;62.61;100144.34;5029997;28;45172;-61
2022/12/09 02:40:44;;;;;;;;;46.50;36.75;;;;;7.01;62.48;100110.03;5032928;28;44931;-63
2022/12/09 02:43:12;;;;;;;;;43.75;32.75;;;;;7.12;62.19;100139.56;5031914;28;45221;-63
2022/12/09 02:45:41;;;;;;;;;41.25;30.50;;;;;7.09;62.41;100133.25;5027040;28;45651;-64
2022/12/09 02:48:09;;;;;;;;;41.25;28.50;;;;;6.92;62.57;100108.84;5029852;28;45247;-64
2022/12/09 02:50:36;;;;;;;;;41.75;32.00;;;;;7.10;62.30;100135.06;5022671;28;44996;-62
2022/12/09 02:53:07;;;;;;;;;31.50;31.50;;;;;7.03;62.23;100120.72;5029551;28;45061;-61
2022/12/09 02:55:34;;;;;;;;;38.25;29.00;;;;;6.92;61.77;100111.50;5024624;28;45151;-63
2022/12/09 02:58:01;;;;;;;;;42.50;30.00;;;;;6.96;62.13;100116.03;5027279;28;45117;-61
2022/12/09 03:00:27;;;;;;;;;32.25;26.00;;;;;7.03;61.66;100136.66;5026537;28;44962;-61
2022/12/09 03:02:57;;;;;;;;;35.25;30.00;;;;;6.96;61.68;100129.31;5030834;28;45291;-63
2022/12/09 03:05:46;;;;;;;;;35.50;29.00;;;;;6.97;61.38;100136.44;5030068;28;45230;-61
2022/12/09 03:08:40;;;;;;;;;36.75;28.25;;;;;6.94;61.52;100147.88;5028457;28;45469;-63
2022/12/09 03:11:15;;;;;;;;;27.75;17.25;;;;;6.88;61.49;100125.53;5021242;28;45103;-61
2022/12/09 03:13:58;;;;;;;;;24.50;20.50;;;;;6.93;61.48;100135.47;5031526;28;45352;-62
2022/12/09 03:16:43;;;;;;;;;35.50;24.25;;;;;6.91;61.40;100138.91;5032030;28;45821;-62
2022/12/09 03:19:13;;;;;;;;;30.00;21.00;;;;;6.81;61.40;100120.06;5033217;28;45084;-62
2022/12/09 03:21:43;;;;;;;;;31.25;27.75;;;;;6.87;61.52;100119.31;5021938;28;45000;-61
2022/12/09 03:24:11;;;;;;;;;28.75;26.25;;;;;6.85;60.96;100118.38;5026339;28;45050;-63
2022/12/09 03:26:38;;;;;;;;;33.25;25.50;;;;;6.93;60.86;100123.91;5028883;28;46281;-62
2022/12/09 03:29:15;;;;;;;;;26.50;22.25;;;;;6.85;61.30;100101.53;5026229;28;45399;-62
2022/12/09 03:31:42;;;;;;;;;41.00;30.25;;;;;6.82;61.13;100095.28;5030127;28;44989;-61
2022/12/09 03:34:12;;;;;;;;;38.50;29.00;;;;;6.87;60.99;100105.16;5027096;28;45336;-61
2022/12/09 03:36:39;;;;;;;;;27.00;22.00;;;;;6.83;61.02;100107.72;5029610;28;45209;-62
2022/12/09 03:39:11;;;;;;;;;38.00;29.50;;;;;6.69;60.61;100079.84;5024144;28;45218;-62
2022/12/09 03:41:42;;;;;;;;;32.50;26.25;;;;;6.71;60.92;100112.63;5027242;28;45156;-61
2022/12/09 03:44:16;;;;;;;;;27.50;21.50;;;;;6.62;61.27;100112.34;5030734;28;45236;-62
2022/12/09 03:46:42;;;;;;;;;37.25;25.50;;;;;6.68;61.12;100123.16;5026543;28;45316;-61
2022/12/09 03:49:08;;;;;;;;;33.50;22.25;;;;;6.70;60.92;100116.16;5021811;28;45229;-61
2022/12/09 03:51:39;;;;;;;;;26.00;22.25;;;;;6.70;61.13;100113.50;5026284;28;45098;-61
2022/12/09 03:54:12;;;;;;;;;32.00;27.75;;;;;6.59;61.30;100109.59;5024825;28;45220;-63
2022/12/09 03:56:41;;;;;;;;;27.25;19.75;;;;;6.49;61.33;100091.59;5028014;28;45340;-61
2022/12/09 03:59:11;;;;;;;;;23.25;18.00;;;;;6.61;61.33;100108.78;5026175;28;45180;-61
2022/12/09 04:01:40;;;;;;;;;31.25;26.50;;;;;6.67;61.23;100108.09;5024072;28;45408;-62
2022/12/09 04:04:05;;;;;;;;;31.50;22.00;;;;;6.60;60.99;100090.16;5028299;28;45105;-61
2022/12/09 04:06:30;;;;;;;;;31.00;26.25;;;;;6.68;60.82;100093.94;5031174;28;45254;-61
2022/12/09 04:08:55;;;;;;;;;36.75;26.25;;;;;6.58;60.95;100090.13;5024772;28;48087;-61
2022/12/09 04:11:21;;;;;;;;;32.25;23.00;;;;;6.60;60.94;100096.38;5025998;28;51969;-61
2022/12/09 04:13:47;;;;;;;;;25.50;22.75;;;;;6.59;61.25;100097.22;5030772;28;45407;-62
2022/12/09 04:16:12;;;;;;;;;30.00;27.00;;;;;6.57;61.08;100090.06;5028031;28;45898;-61
2022/12/09 04:18:37;;;;;;;;;39.00;26.25;;;;;6.53;60.92;100091.72;5025880;28;44980;-61
2022/12/09 04:21:07;;;;;;;;;26.75;24.50;;;;;6.58;61.13;100095.44;5024298;28;44935;-60
2022/12/09 04:23:32;;;;;;;;;27.50;21.50;;;;;6.57;60.77;100092.72;5021435;28;45379;-62
2022/12/09 04:25:58;;;;;;;;;29.25;25.50;;;;;6.47;60.94;100080.91;5025766;28;45539;-61
2022/12/09 04:28:23;;;;;;;;;40.25;26.25;;;;;6.41;61.27;100086.91;5020711;28;45429;-61
2022/12/09 04:30:48;;;;;;;;;37.25;25.00;;;;;6.39;61.09;100080.66;5023575;28;44903;-61
2022/12/09 04:33:14;;;;;;;;;31.00;23.50;;;;;6.38;60.95;100081.50;5030723;28;45037;-61
2022/12/09 04:35:39;;;;;;;;;26.00;18.25;;;;;6.37;61.33;100087.69;5027117;28;47442;-62
2022/12/09 04:38:05;;;;;;;;;28.00;25.00;;;;;6.46;61.03;100089.72;5030024;28;45591;-62
2022/12/09 04:40:30;;;;;;;;;20.25;20.25;;;;;6.50;60.66;100083.69;5029623;28;45585;-61
2022/12/09 04:42:56;;;;;;;;;35.75;29.00;;;;;6.43;60.40;100073.69;5029007;28;45081;-62
2022/12/09 04:45:21;;;;;;;;;27.00;24.50;;;;;6.49;60.85;100080.97;5028012;28;45993;-62
2022/12/09 04:47:47;;;;;;;;;30.50;23.50;;;;;6.51;60.82;100098.72;5025498;28;45424;-59
2022/12/09 04:50:12;;;;;;;;;33.75;24.00;;;;;6.51;60.33;100087.22;5024277;28;56053;-61
2022/12/09 04:52:37;;;;;;;;;34.75;25.00;;;;;6.54;59.98;100088.22;5023777;28;45273;-60
2022/12/09 04:55:03;;;;;;;;;36.00;26.00;;;;;6.45;59.98;100080.88;5027861;28;45737;-63
2022/12/09 04:57:28;;;;;;;;;34.00;27.00;;;;;6.54;60.39;100087.31;5023532;28;45274;-61
2022/12/09 04:59:54;;;;;;;;;29.25;25.50;;;;;6.47;59.51;100072.97;5028665;28;48541;-62
2022/12/09 05:02:20;;;;;;;;;29.25;25.75;;;;;6.42;59.43;100056.88;5018308;28;45225;-61
2022/12/09 05:04:45;;;;;;;;;24.00;21.75;;;;;6.45;59.74;100066.69;5022976;28;47396;-62
2022/12/09 05:07:12;;;;;;;;;24.50;21.75;;;;;6.52;59.74;100083.72;5028943;28;45212;-65
2022/12/09 05:09:37;;;;;;;;;26.75;22.75;;;;;6.53;59.06;100086.41;5028517;28;44753;-62
2022/12/09 05:12:03;;;;;;;;;36.50;32.50;;;;;6.52;59.40;100086.38;5028384;28;45089;-62
2022/12/09 05:14:28;;;;;;;;;24.50;22.00;;;;;6.34;59.26;100063.69;5029782;28;46890;-61
2022/12/09 05:16:53;;;;;;;;;27.00;24.75;;;;;6.40;58.93;100079.81;5032009;28;45203;-60
2022/12/09 05:19:19;;;;;;;;;27.25;21.75;;;;;6.43;59.15;100095.84;5032134;28;45215;-62
2022/12/09 05:21:45;;;;;;;;;30.75;24.75;;;;;6.40;59.66;100085.13;5027599;28;44927;-61
2022/12/09 05:24:10;;;;;;;;;30.00;25.00;;;;;6.36;58.91;100083.22;5025765;28;45760;-63
2022/12/09 05:26:36;;;;;;;;;21.00;19.25;;;;;6.41;58.83;100099.28;5028616;28;45086;-60
2022/12/09 05:29:02;;;;;;;;;27.00;17.75;;;;;6.39;59.21;100099.22;5023281;28;45105;-61
2022/12/09 05:31:28;;;;;;;;;28.50;23.00;;;;;6.30;58.50;100077.69;5022561;28;45409;-61
2022/12/09 05:33:53;;;;;;;;;37.00;26.25;;;;;6.34;58.84;100087.56;5025139;28;45315;-60
2022/12/09 05:36:28;;;;;;;;;23.00;20.75;;;;;6.40;59.05;100105.44;5031033;28;45236;-62
2022/12/09 05:38:54;;;;;;;;;22.25;19.25;;;;;6.33;58.92;100084.88;5011322;28;45124;-60
2022/12/09 05:41:21;;;;;;;;;27.75;21.75;;;;;6.39;58.56;100103.66;5025471;28;45630;-61
2022/12/09 05:43:47;;;;;;;;;20.50;19.75;;;;;6.32;58.25;100088.34;5027628;28;45655;-61
2022/12/09 05:46:13;;;;;;;;;31.50;22.00;;;;;6.25;58.24;100092.56;5025553;28;45245;-59
2022/12/09 05:48:39;;;;;;;;;20.50;17.75;;;;;6.25;58.84;100098.78;5021211;28;45490;-61
2022/12/09 05:51:31;;;;;;;;;24.50;21.25;;;;;6.21;57.67;100107.47;5024323;28;45155;-60
2022/12/09 05:54:01;;;;;;;;;30.00;21.25;;;;;6.09;58.61;100105.31;5021114;28;46713;-62
2022/12/09 05:56:27;;;;;;;;;37.50;29.00;;;;;6.13;58.66;100108.09;5039282;28;45039;-62
2022/12/09 05:58:53;;;;;;;;;25.50;21.00;;;;;6.09;58.37;100115.94;5024288;28;44940;-60
2022/12/09 06:01:19;;;;;;;;;23.50;18.50;;;;;6.07;58.47;100103.44;5029011;28;44997;-61
2022/12/09 06:03:52;;;;;;;;;25.00;19.25;;;;;6.07;58.17;100109.69;5027521;28;45595;-62
2022/12/09 06:06:20;;;;;;;;;22.75;18.00;;;;;5.92;57.87;100103.78;5018304;28;45477;-62
2022/12/09 06:08:46;;;;;;;;;28.00;20.00;;;;;5.97;57.87;100111.94;5030013;28;44900;-60
2022/12/09 06:11:18;;;;;;;;;25.25;18.50;;;;;5.88;57.79;100109.84;5025427;28;44950;-61
2022/12/09 06:13:45;;;;;;;;;25.50;20.50;;;;;5.94;59.33;100126.00;5021889;28;46117;-65
2022/12/09 06:16:11;;;;;;;;;21.00;19.00;;;;;5.81;59.05;100103.44;5023806;28;45383;-61
2022/12/09 06:18:37;;;;;;;;;28.75;19.25;;;;;5.99;58.75;100128.81;5026932;28;45045;-61
2022/12/09 06:21:07;;;;;;;;;36.00;25.50;;;;;5.95;57.83;100117.16;5026406;28;45428;-63
2022/12/09 06:23:34;;;;;;;;;30.00;23.25;;;;;5.93;57.46;100128.59;5024190;28;45832;-64
2022/12/09 06:26:00;;;;;;;;;23.75;19.00;;;;;5.89;57.99;100130.22;5022784;28;45091;-64
2022/12/09 06:28:25;;;;;;;;;30.00;24.75;;;;;5.83;57.79;100128.25;5026114;28;45116;-62
2022/12/09 06:30:50;;;;;;;;;32.00;24.00;;;;;5.79;57.04;100130.72;5034260;28;45048;-62
2022/12/09 06:33:16;;;;;;;;;24.75;20.50;;;;;5.72;57.83;100119.94;5025493;28;51944;-63
2022/12/09 06:35:41;;;;;;;;;31.75;25.00;;;;;5.86;57.63;100138.06;5025360;28;46960;-64
2022/12/09 06:38:07;;;;;;;;;26.25;21.00;;;;;5.84;57.24;100135.38;5028550;28;45635;-63
2022/12/09 06:40:32;;;;;;;;;39.50;32.25;;;;;5.70;57.50;100110.09;5012172;28;45180;-62
2022/12/09 06:42:58;;;;;;;;;36.25;26.50;;;;;5.87;57.70;100126.59;5026000;28;46164;-61
2022/12/09 06:45:23;;;;;;;;;27.25;20.75;;;;;5.90;57.51;100132.91;5023888;28;44999;-60
2022/12/09 06:47:48;;;;;;;;;25.50;23.50;;;;;5.90;57.24;100132.00;5020475;28;45004;-62
2022/12/09 06:50:14;;;;;;;;;19.50;18.00;;;;;5.87;56.92;100137.22;5024686;28;45162;-61
2022/12/09 06:52:40;;;;;;;;;26.75;22.50;;;;;5.67;57.34;100100.28;5022787;28;45723;-60
2022/12/09 06:55:07;;;;;;;;;33.25;28.75;;;;;5.85;57.15;100123.91;5025954;28;45127;-63
2022/12/09 06:57:33;;;;;;;;;34.50;20.75;;;;;5.79;56.94;100131.66;5017777;28;45445;-62
2022/12/09 07:00:00;;;;;;;;;31.25;21.50;;;;;5.70;57.17;100128.66;5029719;28;45281;-60
2022/12/09 07:02:25;;;;;;;;;25.75;20.25;;;;;5.61;57.28;100109.75;5024267;28;45861;-62
2022/12/09 07:04:55;;;;;;;;;33.50;22.50;;;;;5.70;57.43;100132.19;5034117;28;45454;-62
2022/12/09 07:07:21;;;;;;;;;27.00;22.00;;;;;5.71;57.78;100123.41;5030109;28;45277;-61
2022/12/09 07:09:47;;;;;;;;;33.00;25.00;;;;;5.60;56.78;100098.28;5021066;28;45474;-64
2022/12/09 07:12:12;;;;;;;;;30.50;15.00;;;;;5.68;56.78;100135.66;5012079;28;46401;-61
2022/12/09 07:14:38;;;;;;;;;49.75;33.50;;;;;5.69;57.15;100124.19;5011780;28;45526;-62
2022/12/09 07:17:03;;;;;;;;;32.25;26.00;;;;;5.70;56.85;100131.31;5008227;28;45461;-59
2022/12/09 07:19:29;;;;;;;;;44.00;36.00;;;;;5.70;57.02;100142.81;5015517;28;45705;-63
2022/12/09 07:21:56;;;;;;;;;35.75;29.50;;;;;5.68;57.61;100138.31;5021902;28;45413;-61
2022/12/09 07:24:21;;;;;;;;;28.50;24.00;;;;;5.72;57.07;100143.78;5024299;28;45046;-62
2022/12/09 07:26:47;;;;;;;;;24.75;21.25;;;;;5.78;56.99;100152.81;5033470;28;45404;-61
2022/12/09 07:29:13;;;;;;;;;30.50;21.25;;;;;5.78;57.21;100150.16;5026002;28;45112;-62
2022/12/09 07:31:38;;;;;;;;;27.75;20.00;;;;;5.75;56.19;100140.31;5015755;28;45898;-61
2022/12/09 07:34:04;;;;;;;;;34.00;24.00;;;;;5.82;56.87;100152.06;5008771;28;57858;-61
2022/12/09 07:36:32;;;;;;;;;25.25;22.00;;;;;5.75;56.75;100150.94;5013163;28;45514;-64
2022/12/09 07:39:04;;;;;;;;;24.25;22.50;;;;;5.77;56.31;100137.72;5020823;28;45392;-63
2022/12/09 07:41:29;;;;;;;;;28.50;23.75;;;;;5.72;57.46;100132.25;5013677;28;46051;-61
2022/12/09 07:43:55;;;;;;;;;32.00;19.75;;;;;5.81;56.25;100143.19;5015225;28;45485;-61
2022/12/09 07:46:22;;;;;;;;;41.00;33.50;;;;;5.87;56.89;100155.75;5015003;28;45454;-62
2022/12/09 07:48:48;;;;;;;;;27.50;17.25;;;;;5.81;56.08;100144.97;5016057;28;45679;-62
2022/12/09 07:51:14;;;;;;;;;25.25;18.25;;;;;5.71;56.19;100139.31;5014681;28;46289;-62
2022/12/09 07:53:40;;;;;;;;;24.75;19.00;;;;;5.69;56.25;100154.28;5014962;28;45489;-62
2022/12/09 07:56:10;;;;;;;;;20.25;19.00;;;;;5.65;56.50;100165.59;5013883;28;45573;-61
2022/12/09 07:58:35;;;;;;;;;22.25;19.75;;;;;5.67;56.93;100163.00;5016040;28;45478;-66
2022/12/09 08:01:08;;;;;;;;;22.50;19.75;;;;;5.60;56.24;100160.97;5015494;28;45505;-61
2022/12/09 08:03:34;;;;;;;;;30.25;21.25;;;;;5.56;56.63;100161.69;5015810;28;45540;-61
2022/12/09 08:06:00;;;;;;;;;28.50;22.25;;;;;5.61;56.58;100163.69;5016469;28;45305;-61
2022/12/09 08:08:26;;;;;;;;;26.75;24.25;;;;;5.61;56.83;100157.47;5015343;28;45710;-62
2022/12/09 08:10:51;;;;;;;;;34.25;28.00;;;;;5.56;56.35;100156.41;5015471;28;46119;-60
2022/12/09 08:13:16;;;;;;;;;36.50;31.75;;;;;5.63;56.62;100162.00;5011402;28;45452;-60
2022/12/09 08:15:42;;;;;;;;;25.00;24.00;;;;;5.64;56.59;100162.88;5009887;28;45708;-61
2022/12/09 08:18:07;;;;;;;;;47.75;38.25;;;;;5.50;56.17;100150.03;5011907;28;45695;-61
2022/12/09 08:20:33;;;;;;;;;24.75;21.25;;;;;5.53;56.55;100162.50;5005938;28;46665;-62
2022/12/09 08:22:58;;;;;;;;;33.00;28.50;;;;;5.53;56.85;100162.50;5008746;28;45538;-62
2022/12/09 08:25:24;;;;;;;;;39.50;28.00;;;;;4.78;56.62;100023.81;5011117;28;45595;-62
2022/12/09 08:27:49;;;;;;;;;27.25;24.25;;;;;5.43;56.72;100132.13;5012143;28;45332;-61
2022/12/09 08:30:15;;;;;;;;;21.50;18.25;;;;;5.58;56.92;100168.88;5010900;28;46494;-63
2022/12/09 08:32:41;;;;;;;;;22.50;19.00;;;;;5.40;56.62;100139.94;5007021;28;46250;-62
2022/12/09 08:35:13;;;;;;;;;28.50;26.00;;;;;5.53;56.89;100160.75;5013994;28;45444;-61
2022/12/09 08:37:39;;;;;;;;;28.00;23.75;;;;;5.57;56.71;100164.41;5015512;28;45477;-62
2022/12/09 08:40:05;;;;;;;;;19.75;18.75;;;;;5.50;56.50;100160.63;5012399;28;45567;-61
2022/12/09 08:42:30;;;;;;;;;25.00;24.00;;;;;5.53;56.32;100165.16;5010845;28;45516;-62
2022/12/09 08:44:56;;;;;;;;;28.00;20.50;;;;;5.50;56.94;100171.22;5015210;28;45502;-61
2022/12/09 08:47:21;;;;;;;;;24.00;20.00;;;;;5.48;56.91;100162.31;5011311;28;45610;-62
2022/12/09 08:49:47;;;;;;;;;30.25;27.50;;;;;5.48;56.89;100156.13;5009478;28;46805;-62
2022/12/09 08:52:12;;;;;;;;;21.00;20.75;;;;;5.53;56.94;100167.81;5013134;28;45494;-61
2022/12/09 08:54:37;;;;;;;;;30.50;21.75;;;;;5.56;57.09;100177.59;5014562;28;45492;-60
2022/12/09 08:57:02;;;;;;;;;35.25;28.75;;;;;5.58;58.00;100171.53;5012668;28;45283;-62
2022/12/09 08:59:28;;;;;;;;;50.50;33.00;;;;;5.50;57.19;100139.44;5010717;28;46472;-62
2022/12/09 09:01:53;;;;;;;;;37.25;28.00;;;;;5.78;57.59;100177.56;5011661;28;45488;-62
2022/12/09 09:04:21;;;;;;;;;35.00;30.50;;;;;5.70;56.93;100165.75;5011296;28;45584;-62
2022/12/09 09:06:49;;;;;;;;;50.75;37.00;;;;;5.81;57.06;100180.31;5011710;28;45298;-62
2022/12/09 09:09:15;;;;;;;;;53.00;42.00;;;;;5.76;56.74;100160.69;5007578;28;46463;-62
2022/12/09 09:11:40;;;;;;;;;30.00;23.25;;;;;5.79;56.60;100163.47;5010322;28;45338;-60
2022/12/09 09:14:09;;;;;;;;;39.00;32.00;;;;;5.85;56.63;100162.75;5011420;28;45472;-59
2022/12/09 09:16:40;;;;;;;;;32.00;28.00;;;;;5.96;56.44;100179.06;5015049;28;45572;-60
2022/12/09 09:19:07;;;;;;;;;28.50;22.75;;;;;5.95;56.61;100180.78;5006795;28;48058;-62
2022/12/09 09:21:33;;;;;;;;;54.50;42.00;;;;;5.96;57.02;100180.00;5005085;28;45695;-60
2022/12/09 09:23:59;;;;;;;;;29.50;26.50;;;;;5.96;56.81;100193.25;5007814;28;45335;-60
2022/12/09 09:26:26;;;;;;;;;33.75;26.75;;;;;5.83;56.12;100162.72;5013536;28;45398;-61
2022/12/09 09:28:54;;;;;;;;;28.25;23.75;;;;;5.86;56.46;100176.06;5008860;28;45675;-61
2022/12/09 09:31:21;;;;;;;;;32.00;24.75;;;;;5.90;56.60;100183.28;5012829;28;45293;-62
2022/12/09 09:33:47;;;;;;;;;33.50;30.25;;;;;5.70;56.60;100156.06;5011831;28;45535;-63
2022/12/09 09:36:19;;;;;;;;;26.75;24.50;;;;;5.82;56.16;100181.22;5013587;28;45609;-62
2022/12/09 09:38:48;;;;;;;;;40.25;32.00;;;;;5.82;56.36;100170.59;5010685;28;46929;-62
2022/12/09 09:41:39;;;;;;;;;36.50;30.75;;;;;5.82;57.13;100186.50;5013656;28;45485;-62
2022/12/09 09:44:21;;;;;;;;;47.00;29.25;;;;;5.76;56.56;100176.59;5017140;28;45451;-64
2022/12/09 09:46:48;;;;;;;;;39.75;33.25;;;;;5.72;56.37;100180.88;5008755;28;45632;-62
2022/12/09 09:49:26;;;;;;;;;39.00;29.75;;;;;5.72;56.76;100183.53;5001399;28;46102;-60
2022/12/09 09:51:52;;;;;;;;;30.75;24.50;;;;;5.66;56.26;100170.06;5008992;28;45366;-60
2022/12/09 09:54:17;;;;;;;;;33.25;29.25;;;;;5.72;57.01;100183.53;5013205;28;45638;-62
2022/12/09 09:57:11;;;;;;;;;37.25;28.50;;;;;5.66;56.61;100162.09;5010081;28;45448;-63
2022/12/09 09:59:55;;;;;;;;;37.50;27.00;;;;;5.83;57.01;100180.38;5007898;28;46538;-63
2022/12/09 10:02:30;;;;;;;;;41.75;29.75;;;;;5.88;56.75;100178.78;5011766;28;45402;-66
2022/12/09 10:05:20;;;;;;;;;44.00;30.50;;;;;5.88;56.96;100178.78;5012604;28;45445;-60
2022/12/09 10:07:51;;;;;;;;;62.75;45.25;;;;;5.90;57.28;100179.72;5008170;28;45827;-61
2022/12/09 10:10:48;;;;;;;;;47.25;33.50;;;;;5.94;57.11;100180.75;5009215;28;45718;-61
2022/12/09 10:13:25;;;;;;;;;41.25;30.75;;;;;5.96;56.63;100166.75;5011549;28;45968;-61
2022/12/09 10:16:01;;;;;;;;;49.25;34.00;;;;;6.06;56.46;100171.50;5011784;28;45423;-62
2022/12/09 10:18:34;;;;;;;;;39.00;35.25;;;;;6.06;56.33;100155.59;5013798;28;45465;-63
2022/12/09 10:20:59;;;;;;;;;43.00;36.00;;;;;6.00;56.23;100147.41;5012033;28;47124;-62
2022/12/09 10:23:30;;;;;;;;;34.25;29.75;;;;;6.06;55.73;100152.94;5012122;28;45443;-63
2022/12/09 10:26:03;;;;;;;;;38.75;30.25;;;;;6.08;55.77;100145.06;5011031;28;45495;-61
2022/12/09 10:28:41;;;;;;;;;48.00;38.50;;;;;6.16;56.39;100163.88;5008236;28;45488;-62
2022/12/09 10:31:09;;;;;;;;;43.50;32.00;;;;;6.13;56.41;100150.50;5010128;28;46459;-63
2022/12/09 10:33:37;;;;;;;;;49.50;41.00;;;;;6.17;56.89;100155.06;5010676;28;45558;-62
2022/12/09 10:36:04;;;;;;;;;46.00;37.50;;;;;6.19;57.00;100148.97;5014448;28;45499;-61
2022/12/09 10:38:34;;;;;;;;;42.25;34.75;;;;;6.15;56.99;100146.16;5010207;28;45596;-60
2022/12/09 10:44:33;;;;;;;;;37.00;30.25;;;;;6.23;55.76;100119.03;5003346;28;45649;-64
2022/12/09 10:47:04;;;;;;;;;45.25;35.00;;;;;6.19;55.88;100114.50;5015627;28;45519;-61
2022/12/09 10:49:30;;;;;;;;;36.00;32.50;;;;;6.31;55.76;100140.53;5013037;28;45651;-63
2022/12/09 10:51:56;;;;;;;;;38.50;34.25;;;;;6.21;56.24;100143.72;5013607;28;45975;-62
2022/12/09 10:54:33;;;;;;;;;37.25;30.75;;;;;6.14;56.41;100136.38;5009536;28;45437;-62
2022/12/09 10:57:09;;;;;;;;;36.00;25.50;;;;;6.17;55.85;100147.09;5013284;28;45522;-63
2022/12/09 10:59:35;;;;;;;;;39.50;34.75;;;;;6.07;56.58;100128.25;5012580;28;45432;-62
2022/12/09 11:02:09;;;;;;;;;38.75;33.50;;;;;6.15;56.61;100135.56;5008911;28;46497;-63
2022/12/09 11:04:36;;;;;;;;;48.00;35.75;;;;;6.21;56.79;100136.66;5010510;28;45539;-62
2022/12/09 11:07:11;;;;;;;;;34.25;31.75;;;;;6.27;56.49;100133.34;5012528;28;46382;-62
2022/12/09 11:09:40;;;;;;;;;35.25;30.25;;;;;5.83;56.42;100055.78;5009244;28;45510;-62
2022/12/09 11:12:15;;;;;;;;;36.25;25.75;;;;;6.17;56.01;100104.66;5013239;28;46007;-64
2022/12/09 11:14:49;;;;;;;;;34.00;32.50;;;;;6.20;56.32;100126.00;5012243;28;45506;-64
2022/12/09 11:17:18;;;;;;;;;41.50;30.00;;;;;6.18;56.29;100115.34;5012539;28;45538;-63
2022/12/09 11:19:51;;;;;;;;;34.00;27.75;;;;;6.20;55.98;100118.03;5016422;28;45756;-63
2022/12/09 11:22:39;;;;;;;;;52.50;37.00;;;;;6.20;56.52;100123.34;5013094;28;47772;-63
2022/12/09 11:25:10;;;;;;;;;36.50;32.50;;;;;6.26;55.99;100128.88;5014555;28;45364;-63
2022/12/09 11:27:58;;;;;;;;;35.75;32.25;;;;;6.28;56.14;100111.25;5014438;28;45417;-61